Time;durP1;ratioP1;P1;durP2;ratioP2;P2;SDS_P1;SDS_P2;PMS_P1;PMS_P2;Temp;Humidity;BMP_temperature;BMP_pressure;BME280_temperature;BME280_humidity;BME280_pressure;Samples;Min_cycle;Max_cycle;Signal;HPM_P1;HPM_P2
2024/03/20 00:00:17;;;;;;;;;;;;;;;;;;4957679;28;89182;-76
2024/03/20 00:02:43;;;;;;;;;;;;;;;;;;4984882;28;89400;-76
2024/03/20 00:05:08;;;;;;;;;;;;;;;;;;4972926;28;89625;-75
2024/03/20 00:07:33;;;;;;;;;;;;;;;;;;4965464;28;89724;-74
2024/03/20 00:09:58;;;;;;;;;;;;;;;;;;4997388;28;92938;-76
2024/03/20 00:12:24;;;;;;;;;;;;;;;;;;4963953;28;92186;-75
2024/03/20 00:14:49;;;;;;;;;;;;;;;;;;4965142;28;89793;-76
2024/03/20 00:17:15;;;;;;;;;;;;;;;;;;4965040;28;89667;-72
2024/03/20 00:19:40;;;;;;;;;;;;;;;;;;4964999;28;89944;-75
2024/03/20 00:22:06;;;;;;;;;;;;;;;;;;4965529;28;89337;-74
2024/03/20 00:24:31;;;;;;;;;;;;;;;;;;4965088;28;89710;-73
2024/03/20 00:26:57;;;;;;;;;;;;;;;;;;4967809;28;89231;-75
2024/03/20 00:29:22;;;;;;;;;;;;;;;;;;4965444;28;89586;-75
2024/03/20 00:31:47;;;;;;;;;;;;;;;;;;4966377;28;89637;-76
2024/03/20 00:34:17;;;;;;;;;;;;;;;;;;4965904;28;89169;-76
2024/03/20 00:36:42;;;;;;;;;;;;;;;;;;4966371;28;89682;-75
2024/03/20 00:39:08;;;;;;;;;;;;;;;;;;4966193;28;90275;-75
2024/03/20 00:41:33;;;;;;;;;;;;;;;;;;4967219;28;90428;-75
2024/03/20 00:43:59;;;;;;;;;;;;;;;;;;4967880;28;89720;-75
2024/03/20 00:46:27;;;;;;;;;;;;;;;;;;4968429;28;91992;-76
2024/03/20 00:48:52;;;;;;;;;;;;;;;;;;4967133;28;89722;-76
2024/03/20 00:51:18;;;;;;;;;;;;;;;;;;4967493;28;89304;-75
2024/03/20 00:53:43;;;;;;;;;;;;;;;;;;4968181;28;89709;-75
2024/03/20 00:56:08;;;;;;;;;;;;;;;;;;4968759;28;89616;-74
2024/03/20 00:58:36;;;;;;;;;;;;;;;;;;4969536;28;89276;-75
2024/03/20 01:01:02;;;;;;;;;;;;;;;;;;4970282;28;89371;-76
2024/03/20 01:03:27;;;;;;;;;;;;;;;;;;4964724;28;89637;-74
2024/03/20 01:05:55;;;;;;;;;;;;;;;;;;4964325;28;89459;-74
2024/03/20 01:08:21;;;;;;;;;;;;;;;;;;4967844;28;89579;-73
2024/03/20 01:10:46;;;;;;;;;;;;;;;;;;4964174;28;89668;-74
2024/03/20 01:13:12;;;;;;;;;;;;;;;;;;4964562;28;89502;-72
2024/03/20 01:15:37;;;;;;;;;;;;;;;;;;4964911;28;89712;-74
2024/03/20 01:18:02;;;;;;;;;;;;;;;;;;4964547;28;89644;-74
2024/03/20 01:20:27;;;;;;;;;;;;;;;;;;4964792;28;89359;-73
2024/03/20 01:22:53;;;;;;;;;;;;;;;;;;4995775;28;90865;-72
2024/03/20 01:25:18;;;;;;;;;;;;;;;;;;4964256;28;89472;-72
2024/03/20 01:27:44;;;;;;;;;;;;;;;;;;4958088;28;89692;-72
2024/03/20 01:30:09;;;;;;;;;;;;;;;;;;4947181;28;89796;-72
2024/03/20 01:32:35;;;;;;;;;;;;;;;;;;4960173;28;89989;-75
2024/03/20 01:35:00;;;;;;;;;;;;;;;;;;4944778;28;89699;-75
2024/03/20 01:37:25;;;;;;;;;;;;;;;;;;4944345;28;89517;-76
2024/03/20 01:39:50;;;;;;;;;;;;;;;;;;4944766;28;90029;-75
2024/03/20 01:42:16;;;;;;;;;;;;;;;;;;4944559;28;91102;-75
2024/03/20 01:44:41;;;;;;;;;;;;;;;;;;4945310;28;90591;-75
2024/03/20 01:47:07;;;;;;;;;;;;;;;;;;4948213;28;90173;-75
2024/03/20 01:49:34;;;;;;;;;;;;;;;;;;4948387;28;89651;-75
2024/03/20 01:52:00;;;;;;;;;;;;;;;;;;4950461;28;89708;-75
2024/03/20 01:54:26;;;;;;;;;;;;;;;;;;4948284;28;90278;-76
2024/03/20 01:56:53;;;;;;;;;;;;;;;;;;4961145;28;90396;-76
2024/03/20 01:59:18;;;;;;;;;;;;;;;;;;4987236;28;89761;-75
2024/03/20 02:01:43;;;;;;;;;;;;;;;;;;4987416;28;89412;-76
2024/03/20 02:04:08;;;;;;;;;;;;;;;;;;4988210;28;89554;-75
2024/03/20 02:06:33;;;;;;;;;;;;;;;;;;4988317;28;89443;-75
2024/03/20 02:08:59;;;;;;;;;;;;;;;;;;4988075;28;89713;-75
2024/03/20 02:11:25;;;;;;;;;;;;;;;;;;4988250;28;89797;-75
2024/03/20 02:13:51;;;;;;;;;;;;;;;;;;4986610;28;90786;-74
2024/03/20 02:16:17;;;;;;;;;;;;;;;;;;4968186;28;90496;-75
2024/03/20 02:18:43;;;;;;;;;;;;;;;;;;4969269;28;89510;-75
2024/03/20 02:21:09;;;;;;;;;;;;;;;;;;4969189;28;89811;-75
2024/03/20 02:23:34;;;;;;;;;;;;;;;;;;4969466;28;89790;-75
2024/03/20 02:25:59;;;;;;;;;;;;;;;;;;4969438;28;89500;-75
2024/03/20 02:28:24;;;;;;;;;;;;;;;;;;4969171;28;89708;-72
2024/03/20 02:30:50;;;;;;;;;;;;;;;;;;4969499;28;89945;-74
2024/03/20 02:33:15;;;;;;;;;;;;;;;;;;4971317;28;89724;-74
2024/03/20 02:35:40;;;;;;;;;;;;;;;;;;4972117;28;89688;-72
2024/03/20 02:38:05;;;;;;;;;;;;;;;;;;4969101;28;89558;-76
2024/03/20 02:40:31;;;;;;;;;;;;;;;;;;4965856;28;90178;-75
2024/03/20 02:42:56;;;;;;;;;;;;;;;;;;4966533;28;89488;-75
2024/03/20 02:45:21;;;;;;;;;;;;;;;;;;4967017;28;88989;-74
2024/03/20 02:47:46;;;;;;;;;;;;;;;;;;4966856;28;89731;-75
2024/03/20 02:50:11;;;;;;;;;;;;;;;;;;4966608;28;89373;-73
2024/03/20 02:52:37;;;;;;;;;;;;;;;;;;4966785;28;89065;-74
2024/03/20 02:55:02;;;;;;;;;;;;;;;;;;4969470;28;89640;-74
2024/03/20 02:57:27;;;;;;;;;;;;;;;;;;4965767;28;89431;-74
2024/03/20 02:59:52;;;;;;;;;;;;;;;;;;4966850;28;89655;-73
2024/03/20 03:02:18;;;;;;;;;;;;;;;;;;4966594;28;90084;-73
2024/03/20 03:04:43;;;;;;;;;;;;;;;;;;4966840;28;90262;-74
2024/03/20 03:07:09;;;;;;;;;;;;;;;;;;4966929;28;89882;-74
2024/03/20 03:09:34;;;;;;;;;;;;;;;;;;4966451;28;89521;-75
2024/03/20 03:12:02;;;;;;;;;;;;;;;;;;4966316;28;89574;-73
2024/03/20 03:14:27;;;;;;;;;;;;;;;;;;4966207;28;90290;-75
2024/03/20 03:16:52;;;;;;;;;;;;;;;;;;4968597;28;89398;-74
2024/03/20 03:19:17;;;;;;;;;;;;;;;;;;4965468;28;90077;-73
2024/03/20 03:21:42;;;;;;;;;;;;;;;;;;4965909;28;89626;-73
2024/03/20 03:24:07;;;;;;;;;;;;;;;;;;4965757;28;89435;-73
2024/03/20 03:26:35;;;;;;;;;;;;;;;;;;4965884;28;89570;-72
2024/03/20 03:29:00;;;;;;;;;;;;;;;;;;4965566;28;89551;-72
2024/03/20 03:31:26;;;;;;;;;;;;;;;;;;4966094;28;90262;-73
2024/03/20 03:33:51;;;;;;;;;;;;;;;;;;4964880;28;90583;-75
2024/03/20 03:36:16;;;;;;;;;;;;;;;;;;4965490;28;89993;-72
2024/03/20 03:38:41;;;;;;;;;;;;;;;;;;4969011;28;88999;-72
2024/03/20 03:41:06;;;;;;;;;;;;;;;;;;4966282;28;89345;-75
2024/03/20 03:43:32;;;;;;;;;;;;;;;;;;4966202;28;89609;-72
2024/03/20 03:45:57;;;;;;;;;;;;;;;;;;4966404;28;90584;-76
2024/03/20 03:48:26;;;;;;;;;;;;;;;;;;4966715;28;89315;-74
2024/03/20 03:50:52;;;;;;;;;;;;;;;;;;4966048;28;89865;-74
2024/03/20 03:53:17;;;;;;;;;;;;;;;;;;4966209;28;90515;-75
2024/03/20 03:55:43;;;;;;;;;;;;;;;;;;4977673;28;89392;-75
2024/03/20 03:58:08;;;;;;;;;;;;;;;;;;4987520;28;89075;-75
2024/03/20 04:00:34;;;;;;;;;;;;;;;;;;4990225;28;90131;-75
2024/03/20 04:02:59;;;;;;;;;;;;;;;;;;4987178;28;89380;-74
2024/03/20 04:05:24;;;;;;;;;;;;;;;;;;4987155;28;89471;-75
2024/03/20 04:07:52;;;;;;;;;;;;;;;;;;4986890;28;89660;-75
2024/03/20 04:10:17;;;;;;;;;;;;;;;;;;4988033;28;89493;-74
2024/03/20 04:12:42;;;;;;;;;;;;;;;;;;4970633;28;89765;-72
2024/03/20 04:15:07;;;;;;;;;;;;;;;;;;4967190;28;89579;-75
2024/03/20 04:17:33;;;;;;;;;;;;;;;;;;4964374;28;89842;-76
2024/03/20 04:19:58;;;;;;;;;;;;;;;;;;4965155;28;89675;-75
2024/03/20 04:22:23;;;;;;;;;;;;;;;;;;4968376;28;89305;-75
2024/03/20 04:24:48;;;;;;;;;;;;;;;;;;4965670;28;89027;-75
2024/03/20 04:27:14;;;;;;;;;;;;;;;;;;4965381;28;89417;-75
2024/03/20 04:29:39;;;;;;;;;;;;;;;;;;4965626;28;89515;-75
2024/03/20 04:32:04;;;;;;;;;;;;;;;;;;4965161;28;89639;-75
2024/03/20 04:34:30;;;;;;;;;;;;;;;;;;4965206;28;89690;-74
2024/03/20 04:36:55;;;;;;;;;;;;;;;;;;4964766;28;89467;-76
2024/03/20 04:39:22;;;;;;;;;;;;;;;;;;4965062;28;90019;-76
2024/03/20 04:41:47;;;;;;;;;;;;;;;;;;4964795;28;89543;-74
2024/03/20 04:44:12;;;;;;;;;;;;;;;;;;4966655;28;89295;-76
2024/03/20 04:46:37;;;;;;;;;;;;;;;;;;4964870;28;89995;-74
2024/03/20 04:49:03;;;;;;;;;;;;;;;;;;4964862;28;89605;-74
2024/03/20 04:51:28;;;;;;;;;;;;;;;;;;4965300;28;90377;-74
2024/03/20 04:53:53;;;;;;;;;;;;;;;;;;4965035;28;90035;-74
2024/03/20 04:56:18;;;;;;;;;;;;;;;;;;4965053;28;89928;-74
2024/03/20 04:58:44;;;;;;;;;;;;;;;;;;4965091;28;89644;-75
2024/03/20 05:01:09;;;;;;;;;;;;;;;;;;4963041;28;92420;-75
2024/03/20 05:03:34;;;;;;;;;;;;;;;;;;4966859;28;90002;-74
2024/03/20 05:05:59;;;;;;;;;;;;;;;;;;4963699;28;91057;-74
2024/03/20 05:08:25;;;;;;;;;;;;;;;;;;4963828;28;89608;-75
2024/03/20 05:10:50;;;;;;;;;;;;;;;;;;4963936;28;89821;-75
2024/03/20 05:13:15;;;;;;;;;;;;;;;;;;4964716;28;89272;-75
2024/03/20 05:15:40;;;;;;;;;;;;;;;;;;4965120;28;89644;-73
2024/03/20 05:18:05;;;;;;;;;;;;;;;;;;4965025;28;90364;-73
2024/03/20 05:20:31;;;;;;;;;;;;;;;;;;4966909;28;89647;-72
2024/03/20 05:22:56;;;;;;;;;;;;;;;;;;4969362;28;89246;-73
2024/03/20 05:25:21;;;;;;;;;;;;;;;;;;4971550;28;89710;-73
2024/03/20 05:27:46;;;;;;;;;;;;;;;;;;4968527;28;89209;-75
2024/03/20 05:30:12;;;;;;;;;;;;;;;;;;4968428;28;89708;-74
2024/03/20 05:32:37;;;;;;;;;;;;;;;;;;4968508;28;90606;-75
2024/03/20 05:35:03;;;;;;;;;;;;;;;;;;4969587;28;89473;-73
2024/03/20 05:37:29;;;;;;;;;;;;;;;;;;4968110;28;90818;-75
2024/03/20 05:39:54;;;;;;;;;;;;;;;;;;4969396;28;89756;-73
2024/03/20 05:42:19;;;;;;;;;;;;;;;;;;4969814;28;89544;-75
2024/03/20 05:44:46;;;;;;;;;;;;;;;;;;4970019;28;89558;-71
2024/03/20 05:47:11;;;;;;;;;;;;;;;;;;4971260;28;93114;-73
2024/03/20 05:49:36;;;;;;;;;;;;;;;;;;4970360;28;89680;-73
2024/03/20 05:52:01;;;;;;;;;;;;;;;;;;4987055;28;89816;-75
2024/03/20 05:54:27;;;;;;;;;;;;;;;;;;4985866;28;90911;-74
2024/03/20 05:56:52;;;;;;;;;;;;;;;;;;4987228;28;90256;-74
2024/03/20 05:59:17;;;;;;;;;;;;;;;;;;4986793;28;89409;-75
2024/03/20 06:01:43;;;;;;;;;;;;;;;;;;4987493;28;89516;-74
2024/03/20 06:04:08;;;;;;;;;;;;;;;;;;4987824;28;89332;-75
2024/03/20 06:06:34;;;;;;;;;;;;;;;;;;4988125;28;89488;-75
2024/03/20 06:08:59;;;;;;;;;;;;;;;;;;4975320;28;90060;-75
2024/03/20 06:11:24;;;;;;;;;;;;;;;;;;4968313;28;89407;-75
2024/03/20 06:13:49;;;;;;;;;;;;;;;;;;4968716;28;89304;-76
2024/03/20 06:16:15;;;;;;;;;;;;;;;;;;4969399;28;89819;-75
2024/03/20 06:18:40;;;;;;;;;;;;;;;;;;4968792;28;89741;-75
2024/03/20 06:21:06;;;;;;;;;;;;;;;;;;4967443;28;89719;-76
2024/03/20 06:23:31;;;;;;;;;;;;;;;;;;4967469;28;89386;-75
2024/03/20 06:25:57;;;;;;;;;;;;;;;;;;4968148;28;89800;-75
2024/03/20 06:28:22;;;;;;;;;;;;;;;;;;4967801;28;89386;-74
2024/03/20 06:30:47;;;;;;;;;;;;;;;;;;4970326;28;89643;-75
2024/03/20 06:33:14;;;;;;;;;;;;;;;;;;4967375;28;89491;-74
2024/03/20 06:35:39;;;;;;;;;;;;;;;;;;4968324;28;90131;-75
2024/03/20 06:38:07;;;;;;;;;;;;;;;;;;4967639;28;89358;-75
2024/03/20 06:40:32;;;;;;;;;;;;;;;;;;4968429;28;89417;-74
2024/03/20 06:43:02;;;;;;;;;;;;;;;;;;4968269;28;89666;-77
2024/03/20 06:45:31;;;;;;;;;;;;;;;;;;4967051;28;89538;-76
2024/03/20 06:47:57;;;;;;;;;;;;;;;;;;4968891;28;89652;-76
2024/03/20 06:50:27;;;;;;;;;;;;;;;;;;4967425;28;90347;-73
2024/03/20 06:52:52;;;;;;;;;;;;;;;;;;4969390;28;90044;-73
2024/03/20 06:55:17;;;;;;;;;;;;;;;;;;4967545;28;89570;-75
2024/03/20 06:57:42;;;;;;;;;;;;;;;;;;4967175;28;89679;-74
2024/03/20 07:00:17;;;;;;;;;;;;;;;;;;4967933;28;89684;-75
2024/03/20 07:02:42;;;;;;;;;;;;;;;;;;4967672;28;89765;-75
2024/03/20 07:05:09;;;;;;;;;;;;;;;;;;4967346;28;89851;-75
2024/03/20 07:07:34;;;;;;;;;;;;;;;;;;4967470;28;90512;-73
2024/03/20 07:09:59;;;;;;;;;;;;;;;;;;4967242;28;92317;-75
2024/03/20 07:12:24;;;;;;;;;;;;;;;;;;4971241;28;90599;-74
2024/03/20 07:14:49;;;;;;;;;;;;;;;;;;4968666;28;89924;-75
2024/03/20 07:17:15;;;;;;;;;;;;;;;;;;4966445;28;92047;-74
2024/03/20 07:19:40;;;;;;;;;;;;;;;;;;4968951;28;90050;-74
2024/03/20 07:22:05;;;;;;;;;;;;;;;;;;4969959;28;89683;-73
2024/03/20 07:24:30;;;;;;;;;;;;;;;;;;4969631;28;89310;-74
2024/03/20 07:26:56;;;;;;;;;;;;;;;;;;4971345;28;90257;-73
2024/03/20 07:29:21;;;;;;;;;;;;;;;;;;4966663;28;89588;-74
2024/03/20 07:31:46;;;;;;;;;;;;;;;;;;4965310;28;90258;-74
2024/03/20 07:34:12;;;;;;;;;;;;;;;;;;4968831;28;89155;-73
2024/03/20 07:36:37;;;;;;;;;;;;;;;;;;4966194;28;89439;-73
2024/03/20 07:39:08;;;;;;;;;;;;;;;;;;4965839;28;89317;-73
2024/03/20 07:41:33;;;;;;;;;;;;;;;;;;4965395;28;89570;-73
2024/03/20 07:43:58;;;;;;;;;;;;;;;;;;4964961;28;89805;-74
2024/03/20 07:46:24;;;;;;;;;;;;;;;;;;4967243;28;89752;-73
2024/03/20 07:48:49;;;;;;;;;;;;;;;;;;4984685;28;92316;-74
2024/03/20 07:51:18;;;;;;;;;;;;;;;;;;4984051;28;89591;-73
2024/03/20 07:53:44;;;;;;;;;;;;;;;;;;4985456;28;89375;-73
2024/03/20 07:56:09;;;;;;;;;;;;;;;;;;4987639;28;89532;-71
2024/03/20 07:58:35;;;;;;;;;;;;;;;;;;4975012;28;89598;-75
2024/03/20 08:01:00;;;;;;;;;;;;;;;;;;4966469;28;89577;-74
2024/03/20 08:03:26;;;;;;;;;;;;;;;;;;4966545;28;89539;-76
2024/03/20 08:05:52;;;;;;;;;;;;;;;;;;4967170;28;90013;-75
2024/03/20 08:08:17;;;;;;;;;;;;;;;;;;4967433;28;91255;-76
2024/03/20 08:10:42;;;;;;;;;;;;;;;;;;4966209;28;90971;-75
2024/03/20 08:13:09;;;;;;;;;;;;;;;;;;4966923;28;90105;-75
2024/03/20 08:15:35;;;;;;;;;;;;;;;;;;4966894;28;89590;-75
2024/03/20 08:18:00;;;;;;;;;;;;;;;;;;4970139;28;89506;-76
2024/03/20 08:20:26;;;;;;;;;;;;;;;;;;4965645;28;89703;-76
2024/03/20 08:22:51;;;;;;;;;;;;;;;;;;4966712;28;89500;-76
2024/03/20 08:25:16;;;;;;;;;;;;;;;;;;4965834;28;90003;-76
2024/03/20 08:27:41;;;;;;;;;;;;;;;;;;4998634;28;92548;-75
2024/03/20 08:30:07;;;;;;;;;;;;;;;;;;4967154;28;90278;-76
2024/03/20 08:32:33;;;;;;;;;;;;;;;;;;4968006;28;89746;-75
2024/03/20 08:34:58;;;;;;;;;;;;;;;;;;4968562;28;89725;-75
2024/03/20 08:37:24;;;;;;;;;;;;;;;;;;4969073;28;89446;-75
2024/03/20 08:39:51;;;;;;;;;;;;;;;;;;4971151;28;89323;-76
2024/03/20 08:42:16;;;;;;;;;;;;;;;;;;4968543;28;89724;-75
2024/03/20 08:44:42;;;;;;;;;;;;;;;;;;4969250;28;89506;-76
2024/03/20 08:47:07;;;;;;;;;;;;;;;;;;4969516;28;89757;-76
2024/03/20 08:49:37;;;;;;;;;;;;;;;;;;4969704;28;89537;-75
2024/03/20 08:52:03;;;;;;;;;;;;;;;;;;4969280;28;90336;-75
2024/03/20 08:54:28;;;;;;;;;;;;;;;;;;4970655;28;89393;-76
2024/03/20 08:56:53;;;;;;;;;;;;;;;;;;5005102;28;91813;-77
2024/03/20 08:59:18;;;;;;;;;;;;;;;;;;4974106;28;89044;-76
2024/03/20 09:01:43;;;;;;;;;;;;;;;;;;4974654;28;89231;-75
2024/03/20 09:04:10;;;;;;;;;;;;;;;;;;4969628;28;89047;-75
2024/03/20 09:06:35;;;;;;;;;;;;;;;;;;4969730;28;91051;-75
2024/03/20 09:09:00;;;;;;;;;;;;;;;;;;4969326;28;90315;-75
2024/03/20 09:11:25;;;;;;;;;;;;;;;;;;4969105;28;90187;-76
2024/03/20 09:13:50;;;;;;;;;;;;;;;;;;4968248;28;90470;-76
2024/03/20 09:16:15;;;;;;;;;;;;;;;;;;4968100;28;89552;-74
2024/03/20 09:18:41;;;;;;;;;;;;;;;;;;4968171;28;89163;-76
2024/03/20 09:21:06;;;;;;;;;;;;;;;;;;4970889;28;89658;-74
2024/03/20 09:23:31;;;;;;;;;;;;;;;;;;4967945;28;89487;-73
2024/03/20 09:25:57;;;;;;;;;;;;;;;;;;4968673;28;89682;-75
2024/03/20 09:28:22;;;;;;;;;;;;;;;;;;4968798;28;89798;-74
2024/03/20 09:30:48;;;;;;;;;;;;;;;;;;4999745;28;89376;-75
2024/03/20 09:33:13;;;;;;;;;;;;;;;;;;4967562;28;89691;-75
2024/03/20 09:35:39;;;;;;;;;;;;;;;;;;4967986;28;89976;-74
2024/03/20 09:38:04;;;;;;;;;;;;;;;;;;4967701;28;89948;-74
2024/03/20 09:40:29;;;;;;;;;;;;;;;;;;4967416;28;89851;-75
2024/03/20 09:42:54;;;;;;;;;;;;;;;;;;4970925;28;89229;-75
2024/03/20 09:45:20;;;;;;;;;;;;;;;;;;4967733;28;90400;-74
2024/03/20 09:47:50;;;;;;;;;;;;;;;;;;4999380;28;92143;-73
2024/03/20 09:50:15;;;;;;;;;;;;;;;;;;4976819;28;90247;-75
2024/03/20 09:52:40;;;;;;;;;;;;;;;;;;4987385;28;90292;-75
2024/03/20 09:55:06;;;;;;;;;;;;;;;;;;4987460;28;89542;-74
2024/03/20 09:57:32;;;;;;;;;;;;;;;;;;4987117;28;89435;-74
2024/03/20 09:59:58;;;;;;;;;;;;;;;;;;4982892;28;89697;-76
2024/03/20 10:02:26;;;;;;;;;;;;;;;;;;4967695;28;89432;-73
2024/03/20 10:04:52;;;;;;;;;;;;;;;;;;4970367;28;89870;-73
2024/03/20 10:07:17;;;;;;;;;;;;;;;;;;4967836;28;89756;-76
2024/03/20 10:09:45;;;;;;;;;;;;;;;;;;4968816;28;90705;-77
2024/03/20 10:12:14;;;;;;;;;;;;;;;;;;4969001;28;90152;-76
2024/03/20 10:14:40;;;;;;;;;;;;;;;;;;4970015;28;89400;-77
2024/03/20 10:17:11;;;;;;;;;;;;;;;;;;4970723;28;89402;-77
2024/03/20 10:19:37;;;;;;;;;;;;;;;;;;4970802;28;89863;-76
2024/03/20 10:22:03;;;;;;;;;;;;;;;;;;4970977;28;89907;-76
2024/03/20 10:24:31;;;;;;;;;;;;;;;;;;4972445;28;89081;-76
2024/03/20 10:26:56;;;;;;;;;;;;;;;;;;4976322;28;89041;-77
2024/03/20 10:29:24;;;;;;;;;;;;;;;;;;4970403;28;89071;-77
2024/03/20 10:31:50;;;;;;;;;;;;;;;;;;4967319;28;89143;-77
2024/03/20 10:34:17;;;;;;;;;;;;;;;;;;4966907;28;89800;-77
2024/03/20 10:36:43;;;;;;;;;;;;;;;;;;4966839;28;89434;-76
2024/03/20 10:39:17;;;;;;;;;;;;;;;;;;4967250;28;89744;-77
2024/03/20 10:41:43;;;;;;;;;;;;;;;;;;4966915;28;89550;-76
2024/03/20 10:44:13;;;;;;;;;;;;;;;;;;4966619;28;89052;-76
2024/03/20 10:46:40;;;;;;;;;;;;;;;;;;4966271;28;89931;-76
2024/03/20 10:49:05;;;;;;;;;;;;;;;;;;4969525;28;90227;-76
2024/03/20 10:51:32;;;;;;;;;;;;;;;;;;4966725;28;89484;-76
2024/03/20 10:53:58;;;;;;;;;;;;;;;;;;4965134;28;92260;-77
2024/03/20 10:56:23;;;;;;;;;;;;;;;;;;4966483;28;89691;-78
2024/03/20 10:59:01;;;;;;;;;;;;;;;;;;4998355;28;91636;-77
2024/03/20 11:01:26;;;;;;;;;;;;;;;;;;4966405;28;89440;-76
2024/03/20 11:03:54;;;;;;;;;;;;;;;;;;4966628;28;89587;-75
2024/03/20 11:06:26;;;;;;;;;;;;;;;;;;4964635;28;92521;-75
2024/03/20 11:08:57;;;;;;;;;;;;;;;;;;4968111;28;89844;-76
2024/03/20 11:11:25;;;;;;;;;;;;;;;;;;4966119;28;89793;-76
2024/03/20 11:13:51;;;;;;;;;;;;;;;;;;4966126;28;90588;-76
2024/03/20 11:16:23;;;;;;;;;;;;;;;;;;4966234;28;89702;-76
2024/03/20 11:18:54;;;;;;;;;;;;;;;;;;4965404;28;89864;-76
2024/03/20 11:21:21;;;;;;;;;;;;;;;;;;4965735;28;89184;-78
2024/03/20 11:23:47;;;;;;;;;;;;;;;;;;4966135;28;89653;-77
2024/03/20 11:26:12;;;;;;;;;;;;;;;;;;4965993;28;89759;-77
2024/03/20 11:28:37;;;;;;;;;;;;;;;;;;4965901;28;89401;-76
2024/03/20 11:31:03;;;;;;;;;;;;;;;;;;4968697;28;89212;-77
2024/03/20 11:33:28;;;;;;;;;;;;;;;;;;4965666;28;89390;-78
2024/03/20 11:35:54;;;;;;;;;;;;;;;;;;4965208;28;89560;-77
2024/03/20 11:38:28;;;;;;;;;;;;;;;;;;4965838;28;89946;-77
2024/03/20 11:40:56;;;;;;;;;;;;;;;;;;4997871;28;91852;-77
2024/03/20 11:43:23;;;;;;;;;;;;;;;;;;4982603;28;89887;-77
2024/03/20 11:45:49;;;;;;;;;;;;;;;;;;4985026;28;89332;-78
2024/03/20 11:48:14;;;;;;;;;;;;;;;;;;4984999;28;90280;-77
2024/03/20 11:50:39;;;;;;;;;;;;;;;;;;4985379;28;89989;-77
2024/03/20 11:53:05;;;;;;;;;;;;;;;;;;4988286;28;89440;-78
2024/03/20 11:55:30;;;;;;;;;;;;;;;;;;4985161;28;89702;-77
2024/03/20 11:57:57;;;;;;;;;;;;;;;;;;4985189;28;90577;-75
2024/03/20 12:00:22;;;;;;;;;;;;;;;;;;4984371;28;89450;-74
2024/03/20 12:02:49;;;;;;;;;;;;;;;;;;4978121;28;89223;-75
2024/03/20 12:05:16;;;;;;;;;;;;;;;;;;4965519;28;89539;-74
2024/03/20 12:07:41;;;;;;;;;;;;;;;;;;4965684;28;90357;-74
2024/03/20 12:10:26;;;;;;;;;;;;;;;;;;4965393;28;90007;-74
2024/03/20 12:12:51;;;;;;;;;;;;;;;;;;4965270;28;89759;-74
2024/03/20 12:15:21;;;;;;;;;;;;;;;;;;4968625;28;90065;-77
2024/03/20 12:17:47;;;;;;;;;;;;;;;;;;4965678;28;90285;-74
2024/03/20 12:20:12;;;;;;;;;;;;;;;;;;4965730;28;90468;-77
2024/03/20 12:22:37;;;;;;;;;;;;;;;;;;4965736;28;89428;-77
2024/03/20 12:25:03;;;;;;;;;;;;;;;;;;4964898;28;89730;-76
2024/03/20 12:27:29;;;;;;;;;;;;;;;;;;4963947;28;91296;-77
2024/03/20 12:29:54;;;;;;;;;;;;;;;;;;4964760;28;89420;-78
2024/03/20 12:32:19;;;;;;;;;;;;;;;;;;4963508;28;92377;-77
2024/03/20 12:34:44;;;;;;;;;;;;;;;;;;4964368;28;89902;-78
2024/03/20 12:37:12;;;;;;;;;;;;;;;;;;4967368;28;89061;-77
2024/03/20 12:39:37;;;;;;;;;;;;;;;;;;4964169;28;89901;-77
2024/03/20 12:42:03;;;;;;;;;;;;;;;;;;4965042;28;89829;-78
2024/03/20 12:44:29;;;;;;;;;;;;;;;;;;4962855;28;92611;-77
2024/03/20 12:46:54;;;;;;;;;;;;;;;;;;4995575;28;92050;-78
2024/03/20 12:49:19;;;;;;;;;;;;;;;;;;4964029;28;89305;-78
2024/03/20 12:51:45;;;;;;;;;;;;;;;;;;4964303;28;89958;-78
2024/03/20 12:54:16;;;;;;;;;;;;;;;;;;4964450;28;89395;-77
2024/03/20 12:56:41;;;;;;;;;;;;;;;;;;4964519;28;89075;-78
2024/03/20 12:59:16;;;;;;;;;;;;;;;;;;4967074;28;90121;-77
2024/03/20 13:01:41;;;;;;;;;;;;;;;;;;4964072;28;89439;-78
2024/03/20 13:04:10;;;;;;;;;;;;;;;;;;4964576;28;89608;-77
2024/03/20 13:06:36;;;;;;;;;;;;;;;;;;4964329;28;89325;-74
2024/03/20 13:09:05;;;;;;;;;;;;;;;;;;4964944;28;89627;-75
2024/03/20 13:11:31;;;;;;;;;;;;;;;;;;4965111;28;89992;-74
2024/03/20 13:13:57;;;;;;;;;;;;;;;;;;4964024;28;89533;-75
2024/03/20 13:16:22;;;;;;;;;;;;;;;;;;4963490;28;89806;-73
2024/03/20 13:18:53;;;;;;;;;;;;;;;;;;4999255;28;92293;-78
2024/03/20 13:21:29;;;;;;;;;;;;;;;;;;4996066;28;89957;-78
2024/03/20 13:24:08;;;;;;;;;;;;;;;;;;4964201;28;90055;-77
2024/03/20 13:26:35;;;;;;;;;;;;;;;;;;4963851;28;90051;-78
2024/03/20 13:29:04;;;;;;;;;;;;;;;;;;4963876;28;89327;-79
2024/03/20 13:31:31;;;;;;;;;;;;;;;;;;4963739;28;90101;-77
2024/03/20 13:33:57;;;;;;;;;;;;;;;;;;4963269;28;89276;-77
2024/03/20 13:36:23;;;;;;;;;;;;;;;;;;4963639;28;89502;-77
2024/03/20 13:39:08;;;;;;;;;;;;;;;;;;4964570;28;89764;-78
2024/03/20 13:41:45;;;;;;;;;;;;;;;;;;4988130;28;89690;-77
2024/03/20 13:44:13;;;;;;;;;;;;;;;;;;4987337;28;89825;-77
2024/03/20 13:46:42;;;;;;;;;;;;;;;;;;4986952;28;89325;-76
2024/03/20 13:49:11;;;;;;;;;;;;;;;;;;4986844;28;89991;-76
2024/03/20 13:51:37;;;;;;;;;;;;;;;;;;4986694;28;90002;-78
2024/03/20 13:54:02;;;;;;;;;;;;;;;;;;4985990;28;91877;-74
2024/03/20 13:56:28;;;;;;;;;;;;;;;;;;4985686;28;89712;-75
2024/03/20 13:58:54;;;;;;;;;;;;;;;;;;4986751;28;89668;-76
2024/03/20 14:01:20;;;;;;;;;;;;;;;;;;4986909;28;89644;-74
2024/03/20 14:03:48;;;;;;;;;;;;;;;;;;4985879;28;89505;-74
2024/03/20 14:06:17;;;;;;;;;;;;;;;;;;4967672;28;90110;-75
2024/03/20 14:08:43;;;;;;;;;;;;;;;;;;4967646;28;90063;-74
2024/03/20 14:11:10;;;;;;;;;;;;;;;;;;4965889;28;90909;-75
2024/03/20 14:13:35;;;;;;;;;;;;;;;;;;4967486;28;89538;-74
2024/03/20 14:16:00;;;;;;;;;;;;;;;;;;4966856;28;89640;-75
2024/03/20 14:18:25;;;;;;;;;;;;;;;;;;4966450;28;89851;-76
2024/03/20 14:20:51;;;;;;;;;;;;;;;;;;4966754;28;90614;-74
2024/03/20 14:23:16;;;;;;;;;;;;;;;;;;4966313;28;89509;-78
2024/03/20 14:25:42;;;;;;;;;;;;;;;;;;4969242;28;90069;-74
2024/03/20 14:28:07;;;;;;;;;;;;;;;;;;4997797;28;90234;-77
2024/03/20 14:30:32;;;;;;;;;;;;;;;;;;4966348;28;89416;-74
2024/03/20 14:32:58;;;;;;;;;;;;;;;;;;4966740;28;89490;-74
2024/03/20 14:35:23;;;;;;;;;;;;;;;;;;4967187;28;90501;-76
2024/03/20 14:37:48;;;;;;;;;;;;;;;;;;4966684;28;90811;-78
2024/03/20 14:40:17;;;;;;;;;;;;;;;;;;4967079;28;90855;-77
2024/03/20 14:42:42;;;;;;;;;;;;;;;;;;4998147;28;89944;-77
2024/03/20 14:45:11;;;;;;;;;;;;;;;;;;4966733;28;89795;-77
2024/03/20 14:47:37;;;;;;;;;;;;;;;;;;4969654;28;89864;-79
2024/03/20 14:50:03;;;;;;;;;;;;;;;;;;4998493;28;92270;-79
2024/03/20 14:52:28;;;;;;;;;;;;;;;;;;4966271;28;90434;-79
2024/03/20 14:54:53;;;;;;;;;;;;;;;;;;4998169;28;89753;-78
2024/03/20 14:57:19;;;;;;;;;;;;;;;;;;4998258;28;91490;-77
2024/03/20 14:59:45;;;;;;;;;;;;;;;;;;4966273;28;90886;-77
2024/03/20 15:02:16;;;;;;;;;;;;;;;;;;4952857;28;89308;-78
2024/03/20 15:04:42;;;;;;;;;;;;;;;;;;4946909;28;88950;-79
2024/03/20 15:07:14;;;;;;;;;;;;;;;;;;4946858;28;89175;-79
2024/03/20 15:09:42;;;;;;;;;;;;;;;;;;4949886;28;89174;-75
2024/03/20 15:12:11;;;;;;;;;;;;;;;;;;4946347;28;90623;-74
2024/03/20 15:14:37;;;;;;;;;;;;;;;;;;4946555;28;89485;-74
2024/03/20 15:17:02;;;;;;;;;;;;;;;;;;4945665;28;89841;-78
2024/03/20 15:19:27;;;;;;;;;;;;;;;;;;4945950;28;89556;-76
2024/03/20 15:21:52;;;;;;;;;;;;;;;;;;4946366;28;89361;-75
2024/03/20 15:24:19;;;;;;;;;;;;;;;;;;4945884;28;89756;-76
2024/03/20 15:26:44;;;;;;;;;;;;;;;;;;4946238;28;90368;-77
2024/03/20 15:29:11;;;;;;;;;;;;;;;;;;4950083;28;89670;-78
2024/03/20 15:31:37;;;;;;;;;;;;;;;;;;4947147;28;90035;-77
2024/03/20 15:34:03;;;;;;;;;;;;;;;;;;4947098;28;89366;-77
2024/03/20 15:36:28;;;;;;;;;;;;;;;;;;4981708;28;89820;-77
2024/03/20 15:38:53;;;;;;;;;;;;;;;;;;4985650;28;89623;-79
2024/03/20 15:41:24;;;;;;;;;;;;;;;;;;4984933;28;89074;-78
2024/03/20 15:43:50;;;;;;;;;;;;;;;;;;4985264;28;89733;-78
2024/03/20 15:46:15;;;;;;;;;;;;;;;;;;4984923;28;90045;-75
2024/03/20 15:48:41;;;;;;;;;;;;;;;;;;4983991;28;91235;-77
2024/03/20 15:51:21;;;;;;;;;;;;;;;;;;4988810;28;90023;-78
2024/03/20 15:53:48;;;;;;;;;;;;;;;;;;4985001;28;89465;-78
2024/03/20 15:56:18;;;;;;;;;;;;;;;;;;4984529;28;90360;-76
2024/03/20 15:58:45;;;;;;;;;;;;;;;;;;4983109;28;91129;-76
2024/03/20 16:01:14;;;;;;;;;;;;;;;;;;4964841;28;89403;-75
2024/03/20 16:03:39;;;;;;;;;;;;;;;;;;4963561;28;92178;-75
2024/03/20 16:06:05;;;;;;;;;;;;;;;;;;4964856;28;89523;-76
2024/03/20 16:08:30;;;;;;;;;;;;;;;;;;4963364;28;90463;-75
2024/03/20 16:10:55;;;;;;;;;;;;;;;;;;4964930;28;89718;-78
2024/03/20 16:13:21;;;;;;;;;;;;;;;;;;4968137;28;89448;-79
2024/03/20 16:15:46;;;;;;;;;;;;;;;;;;4963414;28;91037;-75
2024/03/20 16:18:11;;;;;;;;;;;;;;;;;;4964906;28;90004;-76
2024/03/20 16:20:37;;;;;;;;;;;;;;;;;;4964973;28;89568;-76
2024/03/20 16:23:02;;;;;;;;;;;;;;;;;;4997179;28;92459;-77
2024/03/20 16:25:27;;;;;;;;;;;;;;;;;;4965277;28;89718;-75
2024/03/20 16:27:53;;;;;;;;;;;;;;;;;;4965554;28;89085;-77
2024/03/20 16:30:18;;;;;;;;;;;;;;;;;;4964601;28;89762;-75
2024/03/20 16:32:44;;;;;;;;;;;;;;;;;;4964972;28;89310;-77
2024/03/20 16:35:11;;;;;;;;;;;;;;;;;;4968113;28;89783;-78
2024/03/20 16:37:36;;;;;;;;;;;;;;;;;;4964845;28;90097;-78